createdAt,value
2023-03-16T06:03:07.660Z,25.00
2023-03-16T06:04:08.559Z,25.00
2023-03-16T06:05:08.504Z,25.00
2023-03-16T06:06:08.547Z,25.00
2023-03-16T06:07:08.575Z,25.00
2023-03-16T06:08:07.609Z,25.00
2023-03-16T06:09:08.648Z,0.00
2023-03-16T06:10:08.672Z,0.00
2023-03-16T06:11:08.670Z,0.00
2023-03-16T06:12:08.725Z,0.00
2023-03-16T06:13:08.734Z,0.00
2023-03-16T06:14:08.768Z,0.00
2023-03-16T06:15:08.849Z,0.00
2023-03-16T06:16:09.074Z,0.00
2023-03-16T06:17:07.954Z,0.00
2023-03-16T06:18:09.043Z,0.00
2023-03-16T06:19:09.072Z,0.00
2023-03-16T06:20:08.132Z,0.00
2023-03-16T06:21:09.190Z,0.00
2023-03-16T06:22:09.349Z,0.00
2023-03-16T06:23:09.295Z,0.00
2023-03-16T06:24:09.319Z,15.17
2023-03-16T06:25:09.360Z,25.00
2023-03-16T06:26:09.426Z,25.44
2023-03-16T06:27:09.481Z,25.89
2023-03-16T06:28:09.484Z,25.00
2023-03-16T06:29:09.568Z,25.71
2023-03-16T06:30:09.592Z,25.00
2023-03-16T06:31:09.680Z,25.00
2023-03-16T06:32:09.690Z,25.53
2023-03-16T06:33:09.817Z,25.00
2023-03-16T06:34:09.795Z,24.19
2023-03-16T06:35:09.858Z,26.02
2023-03-16T06:36:09.931Z,25.00
2023-03-16T06:37:08.888Z,25.62
2023-03-16T06:38:09.924Z,25.27
2023-03-16T06:39:09.950Z,25.00
2023-03-16T06:40:10.023Z,27.79
2023-03-16T06:41:10.062Z,26.61
2023-03-16T06:42:09.099Z,27.90
2023-03-16T06:43:09.129Z,27.60
2023-03-16T06:44:10.173Z,26.67
2023-03-16T06:45:10.202Z,26.08
2023-03-16T06:46:10.283Z,26.63
2023-03-16T06:47:10.305Z,26.06
2023-03-16T06:48:10.299Z,27.13
2023-03-16T06:49:10.336Z,26.00
2023-03-16T06:50:10.389Z,26.94
2023-03-16T06:51:10.422Z,28.12
2023-03-16T06:52:09.446Z,26.13
2023-03-16T06:53:09.528Z,25.00
2023-03-16T06:54:10.522Z,26.33
2023-03-16T06:55:10.560Z,26.24
2023-03-16T06:56:09.613Z,27.34
2023-03-16T06:57:10.734Z,26.47
2023-03-16T06:58:10.806Z,27.99
2023-03-16T06:59:09.704Z,27.15
2023-03-16T07:00:10.721Z,26.46
2023-03-16T07:01:10.898Z,27.65
2023-03-16T07:02:09.808Z,31.11
2023-03-16T07:03:11.016Z,30.78
2023-03-16T07:04:10.040Z,32.70
2023-03-16T07:05:10.969Z,29.84
2023-03-16T07:06:11.032Z,31.83
2023-03-16T07:07:11.030Z,31.79
2023-03-16T07:08:11.062Z,33.82
2023-03-16T07:09:11.094Z,34.69
2023-03-16T07:10:11.145Z,32.84
2023-03-16T07:11:10.133Z,35.16
2023-03-16T07:12:10.162Z,35.95
2023-03-16T07:13:11.199Z,41.86
2023-03-16T07:14:11.220Z,69.26
2023-03-16T07:15:11.257Z,87.96
2023-03-16T07:16:11.300Z,86.23
2023-03-16T07:17:10.285Z,88.08
2023-03-16T07:18:11.290Z,89.23
2023-03-16T07:19:10.303Z,82.58
2023-03-16T07:20:10.365Z,82.98
2023-03-16T07:21:10.370Z,79.64
2023-03-16T07:22:10.415Z,99.22
2023-03-16T07:23:11.406Z,83.97
2023-03-16T07:24:10.448Z,81.74
2023-03-16T07:25:11.586Z,80.46
2023-03-16T07:26:11.426Z,79.81
2023-03-16T07:27:12.584Z,84.32
2023-03-16T07:28:10.436Z,86.06
2023-03-16T07:29:10.438Z,84.62
2023-03-16T07:30:11.450Z,89.91
2023-03-16T07:31:11.427Z,91.14
2023-03-16T07:32:11.590Z,96.84
2023-03-16T07:33:11.541Z,99.48
2023-03-16T07:34:11.442Z,98.19
2023-03-16T07:35:11.518Z,102.38
2023-03-16T07:36:10.537Z,95.91
2023-03-16T07:37:10.443Z,90.13
2023-03-16T07:38:11.468Z,95.02
2023-03-16T07:39:11.444Z,95.45
2023-03-16T07:40:10.436Z,102.61
2023-03-16T07:41:11.454Z,103.10
2023-03-16T07:42:11.437Z,99.78
2023-03-16T07:43:10.447Z,96.00
2023-03-16T07:44:10.436Z,99.51
2023-03-16T07:45:11.454Z,102.09
2023-03-16T07:46:10.543Z,102.61
2023-03-16T07:47:10.476Z,109.39
2023-03-16T07:48:11.477Z,106.37
2023-03-16T07:49:11.520Z,113.85
2023-03-16T07:50:10.513Z,121.83
2023-03-16T07:51:11.635Z,119.94
2023-03-16T07:52:11.581Z,129.18
2023-03-16T07:53:11.510Z,132.88
2023-03-16T07:54:10.941Z,131.36
2023-03-16T07:55:11.519Z,134.16
2023-03-16T07:56:11.515Z,133.23
2023-03-16T07:57:10.517Z,129.79
2023-03-16T07:58:11.541Z,126.48
2023-03-16T07:59:11.523Z,129.18
2023-03-16T08:00:11.511Z,129.85
2023-03-16T08:01:11.521Z,128.14
2023-03-16T08:02:10.574Z,126.54
2023-03-16T08:03:11.532Z,127.45
2023-03-16T08:04:11.517Z,125.22
2023-03-16T08:05:11.607Z,123.74
2023-03-16T08:06:11.519Z,122.36
2023-03-16T08:07:11.529Z,124.12
2023-03-16T08:08:11.546Z,120.17
2023-03-16T08:09:10.553Z,119.04
2023-03-16T08:10:11.601Z,121.74
2023-03-16T08:11:11.582Z,118.38
2023-03-16T08:12:10.596Z,118.37
2023-03-16T08:13:11.623Z,118.01
2023-03-16T08:14:11.622Z,116.51
2023-03-16T08:15:11.646Z,118.08
2023-03-16T08:16:11.673Z,117.83
2023-03-16T08:17:11.693Z,119.64
2023-03-16T08:18:11.709Z,116.89
2023-03-16T08:19:11.713Z,120.03
2023-03-16T08:20:11.719Z,116.97
2023-03-16T08:21:11.735Z,118.62
2023-03-16T08:22:11.760Z,115.76
2023-03-16T08:23:11.794Z,114.89
2023-03-16T08:24:10.800Z,116.21
2023-03-16T08:25:11.825Z,111.87
2023-03-16T08:26:11.867Z,116.33
2023-03-16T08:27:11.860Z,114.75
2023-03-16T08:28:11.880Z,113.52
2023-03-16T08:29:11.914Z,113.22
2023-03-16T08:30:11.989Z,114.36
2023-03-16T08:31:11.959Z,113.52
2023-03-16T08:32:11.966Z,114.31
2023-03-16T08:33:12.095Z,111.86
2023-03-16T08:34:11.997Z,113.21
2023-03-16T08:35:12.020Z,114.37
2023-03-16T08:36:12.169Z,115.89
2023-03-16T08:37:12.070Z,112.67
2023-03-16T08:38:12.086Z,110.21
2023-03-16T08:39:12.261Z,112.44
2023-03-16T08:40:12.144Z,110.95
2023-03-16T08:41:11.162Z,107.66
2023-03-16T08:42:12.215Z,113.04
2023-03-16T08:43:12.207Z,109.93
2023-03-16T08:44:12.231Z,110.98
2023-03-16T08:45:14.000Z,107.55
2023-03-16T08:46:12.259Z,107.16
2023-03-16T08:47:12.286Z,107.94
2023-03-16T08:48:12.555Z,109.48
2023-03-16T08:49:12.238Z,109.36
2023-03-16T08:50:12.231Z,106.13
2023-03-16T08:51:11.220Z,108.08
2023-03-16T08:52:12.206Z,105.88
2023-03-16T08:53:12.221Z,104.89
2023-03-16T08:54:12.202Z,103.60
2023-03-16T08:55:12.183Z,107.10
2023-03-16T08:56:12.176Z,105.91
2023-03-16T08:57:12.168Z,105.13
2023-03-16T08:58:12.356Z,105.08
2023-03-16T08:59:27.071Z,106.29
2023-03-16T09:00:12.161Z,106.46
2023-03-16T09:01:12.150Z,106.33
2023-03-16T09:02:12.197Z,106.77
2023-03-16T09:03:12.152Z,103.30
2023-03-16T09:04:12.143Z,101.07
2023-03-16T09:05:12.125Z,105.00
2023-03-16T09:06:12.132Z,105.09
2023-03-16T09:07:11.179Z,106.11
2023-03-16T09:08:12.100Z,101.68
2023-03-16T09:09:11.096Z,100.66
2023-03-16T09:10:12.082Z,98.07
2023-03-16T09:11:12.071Z,100.50
2023-03-16T09:12:12.067Z,101.12
2023-03-16T09:13:12.083Z,99.63
2023-03-16T09:14:11.089Z,99.32
2023-03-16T09:15:12.091Z,99.84
2023-03-16T09:16:12.160Z,98.91
2023-03-16T09:17:12.097Z,100.91
2023-03-16T09:18:12.075Z,98.10
2023-03-16T09:19:12.119Z,97.53
2023-03-16T09:20:21.866Z,99.81
2023-03-16T09:21:12.119Z,99.88
2023-03-16T09:22:12.116Z,99.89
2023-03-16T09:23:12.118Z,96.49
2023-03-16T09:24:11.113Z,98.87
2023-03-16T09:25:12.092Z,98.54
2023-03-16T09:26:12.085Z,95.64
2023-03-16T09:27:13.204Z,99.58
2023-03-16T09:28:12.078Z,98.87
2023-03-16T09:29:12.062Z,93.51
2023-03-16T09:30:12.090Z,91.23
2023-03-16T09:31:12.181Z,90.36
2023-03-16T09:32:12.040Z,93.47
2023-03-16T09:33:11.123Z,94.02
2023-03-16T09:34:12.035Z,96.90
2023-03-16T09:35:11.043Z,98.78
2023-03-16T09:36:12.134Z,94.83
2023-03-16T09:37:12.084Z,93.38
2023-03-16T09:38:12.144Z,98.28
2023-03-16T09:39:12.159Z,99.49
2023-03-16T09:40:12.276Z,98.44
2023-03-16T09:41:11.223Z,97.71
2023-03-16T09:42:11.250Z,94.90
2023-03-16T09:43:12.582Z,98.01
2023-03-16T09:44:12.308Z,100.07
2023-03-16T09:45:11.353Z,98.16
2023-03-16T09:46:11.451Z,96.23
2023-03-16T09:47:12.403Z,93.78
2023-03-16T09:48:12.441Z,94.69
2023-03-16T09:49:12.473Z,96.04
2023-03-16T09:50:12.564Z,94.27
2023-03-16T09:51:12.602Z,98.22
2023-03-16T09:52:12.544Z,95.31
2023-03-16T09:53:11.573Z,96.65
2023-03-16T09:54:12.596Z,97.24
2023-03-16T09:55:12.648Z,95.14
2023-03-16T09:56:12.669Z,98.63
2023-03-16T09:57:12.701Z,95.93
2023-03-16T09:58:12.082Z,90.54
2023-03-16T09:59:12.770Z,90.68
2023-03-16T10:00:12.796Z,88.67
2023-03-16T10:01:12.874Z,85.05
2023-03-16T10:02:12.900Z,84.49
2023-03-16T10:03:12.920Z,87.45
2023-03-16T10:04:12.961Z,88.90
2023-03-16T10:05:12.994Z,90.10
2023-03-16T10:06:13.027Z,87.59
2023-03-16T10:07:13.061Z,85.72
2023-03-16T10:08:12.199Z,84.65
2023-03-16T10:09:13.150Z,76.47
2023-03-16T10:10:12.188Z,61.19
2023-03-16T10:11:13.245Z,54.71
2023-03-16T10:12:13.313Z,45.31
2023-03-16T10:13:12.388Z,24.60
2023-03-16T10:14:13.417Z,26.09
2023-03-16T10:15:13.452Z,31.78
2023-03-16T10:16:13.438Z,31.75
2023-03-16T10:17:12.411Z,38.00
2023-03-16T10:18:13.564Z,25.00
2023-03-16T10:19:12.435Z,26.09
2023-03-16T10:20:13.464Z,23.91
2023-03-16T10:21:13.484Z,24.45
2023-03-16T10:22:13.507Z,41.23
2023-03-16T10:23:13.554Z,37.66
2023-03-16T10:24:13.653Z,41.47
2023-03-16T10:25:13.640Z,38.83
2023-03-16T10:26:13.696Z,50.20
2023-03-16T10:27:13.745Z,50.65
2023-03-16T10:28:13.792Z,46.37
2023-03-16T10:29:12.865Z,28.71
2023-03-16T10:30:13.906Z,37.31
2023-03-16T10:31:14.032Z,42.31
2023-03-16T10:32:14.004Z,54.84
2023-03-16T10:33:14.162Z,66.10
2023-03-16T10:34:13.113Z,38.57
2023-03-16T10:35:13.137Z,38.49
2023-03-16T10:36:14.261Z,39.58
2023-03-16T10:37:14.231Z,21.74
2023-03-16T10:38:14.060Z,19.90
2023-03-16T10:39:14.333Z,41.16
2023-03-16T10:40:14.451Z,59.79
2023-03-16T10:41:14.461Z,51.93
2023-03-16T10:42:14.506Z,56.19
2023-03-16T10:43:14.603Z,79.30
2023-03-16T10:45:13.698Z,61.85
2023-03-16T10:46:15.266Z,27.00
2023-03-16T10:47:14.916Z,63.50
2023-03-16T10:48:15.110Z,114.14
2023-03-16T10:49:14.944Z,110.69
2023-03-16T10:50:14.968Z,115.48
2023-03-16T10:51:15.014Z,110.02
2023-03-16T10:52:15.065Z,97.79
2023-03-16T11:34:15.917Z,111.53
2023-03-16T11:35:15.959Z,112.49
2023-03-16T11:36:16.054Z,111.54
2023-03-16T11:37:16.064Z,105.48
2023-03-16T11:38:16.072Z,106.24
2023-03-16T11:39:15.083Z,104.97
2023-03-16T11:40:16.129Z,97.73
2023-03-16T11:41:15.161Z,72.92
2023-03-16T11:42:15.218Z,40.98
2023-03-16T11:43:15.255Z,25.00
2023-03-16T11:44:15.300Z,30.89
2023-03-16T11:45:16.372Z,48.54
2023-03-16T11:46:16.458Z,58.58
2023-03-16T11:47:16.488Z,107.32
2023-03-16T11:48:16.655Z,124.46
2023-03-16T11:49:16.154Z,92.01
2023-03-16T11:50:15.693Z,98.88
2023-03-16T11:51:16.709Z,111.37
2023-03-16T11:52:16.758Z,108.44
2023-03-16T11:53:16.857Z,75.07
2023-03-16T11:54:16.860Z,53.92
2023-03-16T11:55:16.930Z,64.75
2023-03-16T11:56:16.990Z,60.93
2023-03-16T11:57:17.038Z,54.11
2023-03-16T11:58:16.102Z,76.57
2023-03-16T11:59:17.159Z,87.01
2023-03-16T12:00:16.326Z,81.62
2023-03-16T12:01:17.280Z,101.12
2023-03-16T12:02:17.483Z,112.55
2023-03-16T12:03:17.453Z,112.66
2023-03-16T12:04:17.532Z,107.77
2023-03-16T12:05:17.515Z,117.45
2023-03-16T12:06:23.059Z,121.85
2023-03-16T12:07:17.550Z,121.92
2023-03-16T12:23:17.501Z,143.92
2023-03-16T12:24:17.426Z,149.10
2023-03-16T12:25:17.468Z,147.77
2023-03-16T12:26:16.417Z,139.41
2023-03-16T12:27:17.566Z,127.97
2023-03-16T12:28:17.399Z,126.53
2023-03-16T12:29:17.404Z,127.64
2023-03-16T12:30:17.398Z,149.65
2023-03-16T12:31:17.412Z,154.90
2023-03-16T12:32:16.386Z,149.09
2023-03-16T12:33:17.374Z,151.79
2023-03-16T12:34:17.373Z,165.00
2023-03-16T12:35:17.360Z,165.57
2023-03-16T12:36:17.358Z,146.69
2023-03-16T12:37:17.353Z,161.92
2023-03-16T12:38:17.348Z,146.16
2023-03-16T12:39:16.648Z,151.53
2023-03-16T12:40:17.324Z,151.93
2023-03-16T12:41:18.110Z,145.25
2023-03-16T12:42:17.306Z,131.97
2023-03-16T12:43:17.372Z,91.21
2023-03-16T12:44:17.306Z,97.87
2023-03-16T12:45:17.290Z,122.97
2023-03-16T12:46:17.398Z,97.73
2023-03-16T12:47:17.312Z,118.39
2023-03-16T12:48:17.304Z,70.65
2023-03-16T12:49:16.290Z,67.93
2023-03-16T12:50:17.267Z,49.79
2023-03-16T12:51:17.253Z,82.20
2023-03-16T12:52:17.243Z,118.83
2023-03-16T12:53:17.252Z,82.01
2023-03-16T12:54:16.300Z,74.15
2023-03-16T12:55:17.306Z,68.18
2023-03-16T12:56:17.359Z,68.46
2023-03-16T12:57:16.425Z,66.11
2023-03-16T12:58:16.424Z,54.32
2023-03-16T12:59:17.476Z,92.32
2023-03-16T13:00:17.552Z,83.01
2023-03-16T13:01:17.600Z,112.84
2023-03-16T13:02:16.599Z,84.02
2023-03-16T13:03:17.649Z,104.02
2023-03-16T13:04:17.729Z,78.70
2023-03-16T13:05:17.782Z,112.11
2023-03-16T13:06:17.766Z,76.57
2023-03-16T13:07:17.806Z,119.72
2023-03-16T13:08:17.862Z,95.32
2023-03-16T13:09:17.887Z,103.41
2023-03-16T13:10:17.946Z,120.91
2023-03-16T13:11:17.961Z,133.10
2023-03-16T13:12:16.989Z,155.83
2023-03-16T13:13:17.049Z,77.70
2023-03-16T13:14:18.076Z,92.51
2023-03-16T13:15:18.113Z,110.74
2023-03-16T13:16:17.165Z,106.03
2023-03-16T13:17:18.297Z,90.58
2023-03-16T13:18:18.236Z,44.61
2023-03-16T13:19:18.303Z,101.27
2023-03-16T13:20:29.464Z,82.45
2023-03-16T13:21:18.316Z,84.37
2023-03-16T13:22:18.325Z,88.35
2023-03-16T13:23:18.418Z,88.71
2023-03-16T13:24:18.319Z,91.75
2023-03-16T13:25:17.304Z,98.25
2023-03-16T13:26:18.347Z,135.54
2023-03-16T13:27:18.273Z,161.52
2023-03-16T13:28:18.265Z,96.08
2023-03-16T13:29:18.305Z,84.95
2023-03-16T13:30:18.371Z,126.54
2023-03-16T13:31:17.280Z,126.37
2023-03-16T13:32:18.249Z,97.06
2023-03-16T13:33:18.251Z,97.62
2023-03-16T13:34:18.234Z,119.82
2023-03-16T13:35:18.230Z,136.94
2023-03-16T13:36:18.284Z,134.04
2023-03-16T13:37:18.286Z,102.14
2023-03-16T13:38:18.332Z,57.76
2023-03-16T13:39:18.357Z,132.25
2023-03-16T13:40:18.402Z,77.16
2023-03-16T13:41:18.446Z,137.63
2023-03-16T13:42:17.461Z,68.39
2023-03-16T13:43:17.479Z,129.09
2023-03-16T13:44:18.528Z,141.63
2023-03-16T13:45:18.550Z,179.33
2023-03-16T13:46:18.602Z,154.85
2023-03-16T13:47:20.206Z,117.50
2023-03-16T13:48:17.542Z,153.24
2023-03-16T13:49:18.539Z,139.05
2023-03-16T13:50:18.525Z,184.62
2023-03-16T13:51:18.577Z,148.25
2023-03-16T13:52:18.523Z,167.89
2023-03-16T13:53:18.517Z,184.22
2023-03-16T13:54:18.558Z,139.12
2023-03-16T13:55:18.519Z,128.44
2023-03-16T13:56:18.496Z,167.05
2023-03-16T13:57:18.478Z,113.19
2023-03-16T13:58:18.484Z,163.48
2023-03-16T13:59:18.476Z,183.89
2023-03-16T14:00:17.462Z,182.66
2023-03-16T14:01:17.536Z,140.95
2023-03-16T14:02:18.561Z,120.21
2023-03-16T14:03:18.464Z,128.74
2023-03-16T14:04:17.470Z,149.36
2023-03-16T14:05:18.426Z,162.06
2023-03-16T14:06:18.429Z,131.79
2023-03-16T14:07:18.410Z,153.48
2023-03-16T14:08:17.402Z,172.10
2023-03-16T14:09:17.409Z,109.35
2023-03-16T14:10:18.404Z,91.18
2023-03-16T14:11:18.385Z,92.67
2023-03-16T14:12:18.407Z,121.38
2023-03-16T14:13:17.400Z,123.83
2023-03-16T14:14:18.532Z,123.60
2023-03-16T14:15:17.367Z,118.75
2023-03-16T14:16:18.516Z,123.19
2023-03-16T14:17:18.386Z,98.23
2023-03-16T14:18:18.359Z,128.84
2023-03-16T14:19:17.368Z,134.39
2023-03-16T14:20:18.343Z,140.24
2023-03-16T14:21:18.354Z,185.08
2023-03-16T14:22:18.347Z,149.64
2023-03-16T14:23:18.332Z,184.90
2023-03-16T14:24:18.329Z,167.69
2023-03-16T14:25:18.352Z,182.42
2023-03-16T14:26:18.319Z,187.90
2023-03-16T14:27:18.291Z,203.55
2023-03-16T14:28:18.303Z,190.52
2023-03-16T14:29:18.287Z,193.07
2023-03-16T14:30:18.293Z,213.25
2023-03-16T14:31:18.355Z,216.66
2023-03-16T14:32:17.277Z,225.54
2023-03-16T14:33:18.291Z,238.30
2023-03-16T14:34:18.265Z,240.16
2023-03-16T14:35:18.267Z,246.95
2023-03-16T14:36:17.324Z,250.00
2023-03-16T14:37:18.242Z,250.00
2023-03-16T14:38:17.236Z,248.32
2023-03-16T14:39:17.256Z,249.78
2023-03-16T14:40:17.302Z,250.00
2023-03-16T14:41:18.357Z,247.47
2023-03-16T14:42:18.486Z,247.86
2023-03-16T14:43:18.504Z,248.60
2023-03-16T14:44:17.577Z,249.00
2023-03-16T14:45:18.625Z,247.15
2023-03-16T14:46:17.770Z,247.58
2023-03-16T14:47:17.739Z,246.84
2023-03-16T14:48:18.796Z,246.56
2023-03-16T14:49:18.901Z,248.47
2023-03-16T14:50:18.945Z,249.79
2023-03-16T14:51:18.996Z,247.29
2023-03-16T14:52:19.091Z,247.35
2023-03-16T14:53:18.121Z,247.51
2023-03-16T14:54:19.207Z,246.29
2023-03-16T14:55:19.260Z,248.16
2023-03-16T14:56:19.311Z,249.14
2023-03-16T14:57:19.363Z,249.27
2023-03-16T14:58:19.457Z,244.67
2023-03-16T14:59:19.482Z,246.36
2023-03-16T15:00:19.531Z,245.68
2023-03-16T15:01:19.759Z,248.45
2023-03-16T15:02:19.686Z,245.04
2023-03-16T15:03:18.669Z,244.45
2023-03-16T15:04:18.709Z,245.80
2023-03-16T15:05:19.762Z,241.81
2023-03-16T15:06:19.728Z,245.82
2023-03-16T15:07:19.754Z,242.68
2023-03-16T15:08:19.778Z,242.18
2023-03-16T15:09:18.784Z,240.68
2023-03-16T15:10:19.773Z,241.78
2023-03-16T15:11:19.776Z,240.66
2023-03-16T15:12:19.847Z,239.35
2023-03-16T15:13:19.780Z,240.89
2023-03-16T15:14:19.778Z,237.80
2023-03-16T15:15:19.784Z,236.14
2023-03-16T15:16:19.866Z,236.29
2023-03-16T15:17:19.779Z,235.19
2023-03-16T15:18:19.768Z,226.30
2023-03-16T15:19:19.786Z,226.93
2023-03-16T15:20:19.787Z,228.61
2023-03-16T15:21:19.847Z,230.88
2023-03-16T15:22:19.785Z,224.53
2023-03-16T15:23:19.793Z,226.21
2023-03-16T15:24:19.802Z,225.49
2023-03-16T15:25:19.817Z,220.55
2023-03-16T15:26:19.815Z,221.97
2023-03-16T15:27:19.805Z,225.36
2023-03-16T15:28:19.835Z,221.34
2023-03-16T15:29:19.837Z,223.79
2023-03-16T15:30:18.820Z,221.74
2023-03-16T15:31:19.848Z,225.60
2023-03-16T15:32:19.827Z,223.83
2023-03-16T15:33:19.834Z,224.41
2023-03-16T15:34:19.815Z,230.08
2023-03-16T15:35:19.951Z,231.56
2023-03-16T15:36:19.851Z,230.51
2023-03-16T15:37:19.850Z,208.58
2023-03-16T15:38:19.810Z,221.50
2023-03-16T15:39:19.817Z,219.95
2023-03-16T15:40:19.824Z,214.31
2023-03-16T15:41:19.827Z,215.61
2023-03-16T15:42:19.826Z,217.99
2023-03-16T15:43:19.821Z,215.83
2023-03-16T15:44:19.822Z,222.71
2023-03-16T15:45:19.816Z,230.10
2023-03-16T15:46:19.824Z,240.26
2023-03-16T15:47:19.821Z,232.09
2023-03-16T15:48:19.814Z,249.14
2023-03-16T15:49:19.816Z,244.09
2023-03-16T15:50:19.828Z,248.86
2023-03-16T15:51:19.825Z,245.47
2023-03-16T15:52:18.828Z,259.33
2023-03-16T15:53:30.010Z,246.98
2023-03-16T15:54:19.823Z,247.29
2023-03-16T15:55:19.803Z,247.19
2023-03-16T15:56:19.817Z,248.41
2023-03-16T15:57:19.796Z,258.59
2023-03-16T15:58:18.795Z,274.09
2023-03-16T15:59:18.785Z,291.29
2023-03-16T16:00:18.769Z,292.06
2023-03-16T16:01:19.892Z,288.33
2023-03-16T16:02:19.753Z,273.72
2023-03-16T16:03:19.964Z,259.75
2023-03-16T16:04:20.127Z,256.26
2023-03-16T16:05:19.748Z,247.93
2023-03-16T16:06:19.737Z,249.63
2023-03-16T16:07:19.723Z,250.00
2023-03-16T16:08:19.726Z,249.76
2023-03-16T16:09:19.766Z,250.04
2023-03-16T16:10:19.711Z,249.94
2023-03-16T16:11:19.693Z,250.99
2023-03-16T16:12:19.697Z,250.00
2023-03-16T16:13:19.690Z,249.70
2023-03-16T16:14:18.674Z,249.51
2023-03-16T16:15:19.731Z,249.86
2023-03-16T16:16:19.831Z,250.00
2023-03-16T16:17:22.597Z,249.06
2023-03-16T16:18:21.794Z,249.12
2023-03-16T16:19:18.653Z,249.15
2023-03-16T16:20:19.638Z,249.77
2023-03-16T16:21:19.654Z,250.98
2023-03-16T16:22:18.639Z,253.06
2023-03-16T16:23:18.620Z,253.22
2023-03-16T16:24:18.699Z,249.81
2023-03-16T16:25:19.629Z,249.36
2023-03-16T16:26:18.620Z,249.95
2023-03-16T16:27:19.594Z,247.84
2023-03-16T16:28:19.612Z,250.00
2023-03-16T16:29:19.576Z,247.04
